Time;durP1;ratioP1;P1;durP2;ratioP2;P2;SDS_P1;SDS_P2;PMS_P1;PMS_P2;Temp;Humidity;BMP_temperature;BMP_pressure;BME280_temperature;BME280_humidity;BME280_pressure;Samples;Min_cycle;Max_cycle;Signal;HPM_P1;HPM_P2
2021/10/28 00:12:54;;;;;;;22.45;8.82;;;;;;;8.88;77.52;100925.75;5070995;28;20378;-77
2021/10/28 00:15:28;;;;;;;18.80;9.30;;;;;;;8.93;77.47;100927.75;5067824;28;20423;-76
2021/10/28 00:20:29;;;;;;;66.20;11.32;;;;;;;8.99;77.71;100930.41;5050946;28;20755;-76
2021/10/28 00:22:54;;;;;;;122.97;14.00;;;;;;;8.96;77.48;100930.84;5060354;28;20446;-76
2021/10/28 00:25:20;;;;;;;60.23;10.27;;;;;;;8.95;78.56;100923.81;5067076;28;20415;-77
2021/10/28 00:27:45;;;;;;;42.70;10.93;;;;;;;8.93;79.05;100925.91;5042467;28;20913;-76
2021/10/28 00:30:12;;;;;;;41.30;9.25;;;;;;;8.91;78.87;100928.00;5048243;28;20389;-76
2021/10/28 00:32:37;;;;;;;91.80;10.20;;;;;;;8.93;78.58;100930.47;5059075;28;20947;-76
2021/10/28 00:35:03;;;;;;;76.33;10.40;;;;;;;8.89;78.98;100922.00;5056406;28;20406;-76
2021/10/28 00:37:29;;;;;;;82.32;9.57;;;;;;;8.84;79.20;100929.94;5061978;28;20458;-76
2021/10/28 00:39:54;;;;;;;94.75;10.10;;;;;;;8.80;79.35;100918.75;5077594;28;20418;-77
2021/10/28 00:42:19;;;;;;;60.88;8.25;;;;;;;8.75;79.63;100923.16;5058328;28;20400;-77
2021/10/28 00:44:46;;;;;;;40.33;8.17;;;;;;;8.72;79.35;100920.91;5064913;28;20391;-77
2021/10/28 00:47:11;;;;;;;31.73;5.63;;;;;;;8.66;79.39;100922.59;5053682;28;20406;-77
2021/10/28 00:49:36;;;;;;;5.23;4.83;;;;;;;8.62;79.08;100928.69;5056544;28;20400;-77
2021/10/28 00:52:02;;;;;;;6.50;5.50;;;;;;;8.58;78.94;100928.28;5067301;28;20404;-77
2021/10/28 00:54:28;;;;;;;5.78;5.28;;;;;;;8.54;78.61;100921.66;5053507;28;20837;-76
2021/10/28 00:56:54;;;;;;;5.50;5.10;;;;;;;8.53;78.95;100917.31;5053461;28;20821;-76
2021/10/28 00:59:20;;;;;;;6.95;6.13;;;;;;;8.54;79.38;100918.13;5039457;28;20400;-76
2021/10/28 01:01:45;;;;;;;7.20;6.50;;;;;;;8.54;79.12;100918.97;5034907;28;20394;-77
2021/10/28 01:04:11;;;;;;;7.97;6.37;;;;;;;8.53;78.42;100922.72;5037592;28;20404;-77
2021/10/28 01:06:38;;;;;;;6.88;6.10;;;;;;;8.54;78.50;100926.25;5052821;28;20392;-77
2021/10/28 01:09:04;;;;;;;7.38;6.68;;;;;;;8.53;78.63;100917.31;5027743;28;20399;-77
2021/10/28 01:11:30;;;;;;;7.93;7.13;;;;;;;8.52;78.48;100926.47;5036365;28;20455;-76
2021/10/28 01:13:57;;;;;;;8.30;7.50;;;;;;;8.51;78.62;100915.88;5063991;28;20395;-77
2021/10/28 01:16:22;;;;;;;8.40;7.50;;;;;;;8.49;78.67;100918.00;5061053;28;20491;-76
2021/10/28 01:18:48;;;;;;;8.98;8.10;;;;;;;8.47;79.01;100922.75;5063283;28;20487;-76
2021/10/28 01:21:13;;;;;;;8.23;7.23;;;;;;;8.46;79.17;100915.72;5058526;28;20872;-77
2021/10/28 01:23:41;;;;;;;8.23;7.43;;;;;;;8.44;78.70;100917.81;5048392;28;20415;-77
2021/10/28 01:26:09;;;;;;;6.78;6.18;;;;;;;8.44;78.75;100910.53;5050465;28;20434;-77
2021/10/28 01:28:37;;;;;;;6.95;6.35;;;;;;;8.41;78.65;100910.97;5048885;28;20395;-77
2021/10/28 01:31:09;;;;;;;5.97;5.38;;;;;;;8.37;78.28;100906.22;5047585;28;20400;-77
2021/10/28 01:33:36;;;;;;;6.10;5.60;;;;;;;8.34;78.11;100897.53;5069528;28;20395;-77
2021/10/28 01:36:02;;;;;;;8.57;7.50;;;;;;;8.30;77.58;100901.69;5054570;28;20491;-77
2021/10/28 01:38:27;;;;;;;8.13;7.32;;;;;;;8.28;77.95;100901.09;5062085;28;20417;-77
2021/10/28 01:40:58;;;;;;;8.80;7.67;;;;;;;8.26;78.19;100903.19;5049468;28;20395;-77
2021/10/28 01:43:25;;;;;;;5.87;5.30;;;;;;;8.25;76.13;100898.81;5066383;28;20393;-76
2021/10/28 01:45:50;;;;;;;5.35;4.95;;;;;;;8.23;75.50;100898.19;5051683;28;20402;-76
2021/10/28 01:48:17;;;;;;;4.77;4.37;;;;;;;8.15;75.11;100895.78;5082818;28;20563;-76
2021/10/28 01:50:43;;;;;;;3.58;3.40;;;;;;;8.07;75.32;100900.59;5052145;28;20429;-77
2021/10/28 01:53:12;;;;;;;3.75;3.55;;;;;;;8.03;74.93;100899.38;5053558;28;20421;-77
2021/10/28 01:55:38;;;;;;;4.75;4.45;;;;;;;7.97;73.92;100894.88;5043203;28;20855;-77
2021/10/28 01:58:03;;;;;;;6.80;5.23;;;;;;;7.88;73.84;100896.13;5053424;28;20755;-77
2021/10/28 02:00:28;;;;;;;5.70;5.20;;;;;;;7.80;74.75;100897.25;5063088;28;20401;-77
2021/10/28 02:02:54;;;;;;;6.22;5.63;;;;;;;7.76;74.57;100896.84;5049946;28;20395;-77
2021/10/28 02:05:22;;;;;;;8.13;5.60;;;;;;;7.74;75.70;100898.09;5048501;28;20393;-77
2021/10/28 02:07:50;;;;;;;5.57;5.10;;;;;;;7.74;75.70;100893.50;5049677;28;20386;-77
2021/10/28 02:10:17;;;;;;;6.57;5.97;;;;;;;7.70;75.45;100891.47;5051240;28;20399;-77
2021/10/28 02:12:43;;;;;;;6.43;5.93;;;;;;;7.68;75.66;100889.00;5032625;28;20401;-77
2021/10/28 02:15:12;;;;;;;6.07;5.57;;;;;;;7.70;75.93;100891.47;5048848;28;20843;-77
2021/10/28 02:17:38;;;;;;;6.18;5.68;;;;;;;7.71;75.89;100891.25;5035534;28;20816;-77
2021/10/28 02:20:06;;;;;;;6.13;5.53;;;;;;;7.72;76.40;100886.69;5053507;28;20384;-77
2021/10/28 02:22:32;;;;;;;5.93;5.43;;;;;;;7.74;75.99;100884.59;5056854;28;20396;-77
2021/10/28 02:24:58;;;;;;;6.45;5.95;;;;;;;7.73;75.56;100889.19;5061706;28;20389;-77
2021/10/28 02:27:24;;;;;;;6.18;5.65;;;;;;;7.71;75.94;100891.25;5063289;28;20728;-77
2021/10/28 02:29:50;;;;;;;6.70;6.10;;;;;;;7.72;75.47;100886.69;5049164;28;20401;-76
2021/10/28 02:32:15;;;;;;;6.53;5.97;;;;;;;7.71;76.08;100888.56;5053162;28;20486;-77
2021/10/28 02:34:41;;;;;;;6.33;5.83;;;;;;;7.69;75.91;100887.13;5035007;28;20448;-77
2021/10/28 02:37:07;;;;;;;5.80;5.30;;;;;;;7.68;76.03;100883.59;5030318;28;20377;-77
2021/10/28 02:39:32;;;;;;;5.80;5.30;;;;;;;7.66;75.66;100887.56;5051892;28;20406;-76
2021/10/28 02:41:57;;;;;;;5.50;5.07;;;;;;;7.64;74.86;100878.88;5054627;28;20399;-78
2021/10/28 02:44:23;;;;;;;10.57;5.80;;;;;;;7.55;74.09;100878.25;5051610;28;20396;-77
2021/10/28 02:46:48;;;;;;;5.50;5.00;;;;;;;7.49;74.53;100872.91;5059425;28;20403;-77
2021/10/28 02:49:14;;;;;;;5.67;5.00;;;;;;;7.44;74.06;100880.81;5065095;28;20735;-76
2021/10/28 02:51:46;;;;;;;4.53;4.22;;;;;;;7.39;73.39;100877.94;5053179;28;20895;-77
2021/10/28 02:54:16;;;;;;;4.65;4.28;;;;;;;7.36;74.51;100870.28;5051643;28;20732;-76
2021/10/28 02:56:41;;;;;;;5.35;4.95;;;;;;;7.28;74.39;100872.16;5052916;28;20451;-76
2021/10/28 02:59:07;;;;;;;5.27;4.77;;;;;;;7.21;75.15;100868.66;5052077;28;20389;-76
2021/10/28 03:01:33;;;;;;;10.33;8.13;;;;;;;7.21;75.22;100876.75;5047701;28;20748;-77
2021/10/28 03:03:58;;;;;;;5.68;4.70;;;;;;;7.23;74.33;100869.28;5040285;28;20402;-76
2021/10/28 03:06:23;;;;;;;6.23;5.67;;;;;;;7.24;74.19;100878.22;5054352;28;20394;-76
2021/10/28 03:08:50;;;;;;;5.40;4.77;;;;;;;7.22;71.87;100880.28;5049570;28;20393;-76
2021/10/28 03:11:16;;;;;;;4.37;4.07;;;;;;;7.22;72.85;100878.41;5050726;28;20815;-76
2021/10/28 03:13:44;;;;;;;5.05;4.65;;;;;;;7.23;73.63;100888.16;5041108;28;20416;-76
2021/10/28 03:16:26;;;;;;;6.20;4.38;;;;;;;7.26;74.38;100876.13;5054232;28;20415;-78
2021/10/28 03:26:59;;;;;;;7.93;5.47;;;;;;;7.31;75.57;100873.59;5050137;28;20506;-78
2021/10/28 03:29:25;;;;;;;5.75;5.25;;;;;;;7.36;75.45;100863.00;5041626;28;20401;-78
2021/10/28 03:31:50;;;;;;;8.53;5.87;;;;;;;7.39;75.96;100867.97;5042644;28;20437;-78
2021/10/28 03:34:15;;;;;;;9.93;6.13;;;;;;;7.42;75.54;100867.53;5069418;28;20423;-79
2021/10/28 03:36:53;;;;;;;30.23;7.80;;;;;;;7.43;76.40;100858.41;5056323;28;20409;-78
2021/10/28 03:39:54;;;;;;;36.58;9.40;;;;;;;7.44;76.58;100865.47;5034988;28;20417;-78
2021/10/28 03:53:56;;;;;;;54.30;8.30;;;;;;;7.22;75.36;100874.88;5055844;28;20411;-76
2021/10/28 03:56:47;;;;;;;34.50;7.18;;;;;;;7.11;77.50;100876.34;5030855;28;20931;-78
2021/10/28 04:02:34;;;;;;;42.60;6.40;;;;;;;7.07;77.93;100869.75;5048430;28;20399;-79
2021/10/28 04:29:05;;;;;;;8.52;6.18;;;;;;;7.46;76.64;100876.88;5050173;28;20728;-78
2021/10/28 04:31:36;;;;;;;10.52;7.63;;;;;;;7.48;76.88;100873.94;5051721;28;20966;-78
2021/10/28 04:34:06;;;;;;;60.13;37.80;;;;;;;7.47;77.11;100869.59;5057765;28;20492;-79
2021/10/28 04:36:32;;;;;;;11.95;9.10;;;;;;;7.47;76.75;100873.13;5027800;28;20424;-75
2021/10/28 04:38:59;;;;;;;7.43;6.65;;;;;;;7.47;75.42;100865.03;5031842;28;20409;-76
2021/10/28 04:41:25;;;;;;;7.53;6.82;;;;;;;7.46;76.01;100870.63;5064305;28;20748;-78
2021/10/28 04:43:51;;;;;;;6.18;5.68;;;;;;;7.45;75.93;100864.41;5046132;28;20417;-78
2021/10/28 04:46:17;;;;;;;5.40;4.90;;;;;;;7.48;75.69;100863.16;5065388;28;20391;-79
2021/10/28 04:48:42;;;;;;;6.70;5.72;;;;;;;7.48;75.49;100865.84;5055216;28;20397;-77
2021/10/28 04:51:08;;;;;;;8.00;6.07;;;;;;;7.49;75.04;100864.81;5059499;28;20506;-78
2021/10/28 04:53:33;;;;;;;6.43;5.83;;;;;;;7.51;75.63;100868.94;5038014;28;20823;-83
2021/10/28 04:55:58;;;;;;;11.20;6.60;;;;;;;7.50;75.16;100859.22;5060952;28;20465;-78
2021/10/28 04:58:24;;;;;;;9.67;6.50;;;;;;;7.55;75.79;100872.03;5038382;28;20457;-77
2021/10/28 05:00:51;;;;;;;11.00;6.33;;;;;;;7.55;75.88;100872.03;5047282;28;20398;-78
2021/10/28 05:03:16;;;;;;;9.13;6.43;;;;;;;7.56;76.43;100869.16;5040727;28;20424;-78
2021/10/28 05:05:41;;;;;;;9.97;6.13;;;;;;;7.57;76.59;100867.28;5057396;28;20403;-78
2021/10/28 05:08:07;;;;;;;10.17;6.47;;;;;;;7.58;76.61;100866.22;5053772;28;20503;-78
2021/10/28 05:10:33;;;;;;;12.83;6.47;;;;;;;7.49;77.38;100867.50;5056626;28;20954;-77
2021/10/28 05:12:59;;;;;;;15.80;6.60;;;;;;;7.46;77.21;100865.25;5038481;28;20457;-78
2021/10/28 05:15:24;;;;;;;11.20;7.30;;;;;;;7.50;77.33;100859.22;5049101;28;20412;-78
2021/10/28 05:17:49;;;;;;;14.25;7.45;;;;;;;7.56;77.64;100865.63;5054033;28;20412;-78
2021/10/28 05:20:15;;;;;;;13.83;6.33;;;;;;;7.57;77.45;100868.09;5057953;28;20475;-77
2021/10/28 05:22:40;;;;;;;14.77;7.60;;;;;;;7.61;77.73;100863.91;5045002;28;20461;-78
2021/10/28 05:25:06;;;;;;;15.68;7.20;;;;;;;7.63;77.04;100867.25;5050635;28;20404;-78
2021/10/28 05:27:31;;;;;;;71.47;8.73;;;;;;;7.65;77.26;100869.72;5045121;28;20397;-78
2021/10/28 05:29:56;;;;;;;50.37;8.53;;;;;;;7.62;77.66;100865.56;5049290;28;20399;-78
2021/10/28 05:32:22;;;;;;;63.08;8.55;;;;;;;7.60;77.73;100873.06;5047653;28;20887;-78
2021/10/28 05:34:48;;;;;;;93.60;7.33;;;;;;;7.55;77.33;100875.56;5045758;28;20588;-78
2021/10/28 05:37:15;;;;;;;80.53;7.70;;;;;;;7.49;77.93;100872.91;5044274;28;20409;-78
2021/10/28 05:39:40;;;;;;;88.45;8.15;;;;;;;7.41;78.10;100863.19;5029533;28;20464;-78
2021/10/28 05:42:05;;;;;;;33.93;6.03;;;;;;;7.42;78.63;100872.94;5027114;28;20414;-78
2021/10/28 05:44:31;;;;;;;72.63;9.20;;;;;;;7.45;79.61;100869.81;5052855;28;20393;-78
2021/10/28 05:46:56;;;;;;;37.63;5.73;;;;;;;7.48;79.17;100868.53;5026413;28;20498;-79
2021/10/28 05:49:21;;;;;;;56.00;8.60;;;;;;;7.52;79.04;100870.59;5031326;28;20428;-78
2021/10/28 05:51:47;;;;;;;42.97;7.47;;;;;;;7.58;79.96;100874.31;5050723;28;20389;-77
2021/10/28 05:54:13;;;;;;;47.90;7.28;;;;;;;7.61;80.19;100872.00;5051807;28;20496;-78
2021/10/28 05:56:39;;;;;;;84.87;9.53;;;;;;;7.63;79.94;100878.03;5076220;28;20503;-77
2021/10/28 05:59:05;;;;;;;66.88;7.07;;;;;;;7.61;79.58;100872.00;5062088;28;20409;-77
2021/10/28 06:01:30;;;;;;;64.37;7.03;;;;;;;7.60;80.13;100867.69;5026287;28;20403;-77
2021/10/28 06:03:55;;;;;;;59.27;7.93;;;;;;;7.60;79.80;100867.69;5048281;28;20476;-78
2021/10/28 06:06:21;;;;;;;59.80;7.30;;;;;;;7.55;79.55;100859.38;5042888;28;20507;-78
2021/10/28 06:08:47;;;;;;;96.47;12.68;;;;;;;7.55;80.28;100867.47;5051623;28;20880;-78
2021/10/28 06:11:12;;;;;;;31.17;7.20;;;;;;;7.56;80.67;100868.31;5051164;28;20825;-78
2021/10/28 06:13:44;;;;;;;58.47;7.75;;;;;;;7.57;80.97;100869.97;5050860;28;20924;-78
2021/10/28 06:16:17;;;;;;;37.42;8.85;;;;;;;7.58;80.76;100868.91;5054709;28;20426;-78
2021/10/28 06:18:43;;;;;;;37.03;9.23;;;;;;;7.59;81.31;100865.19;5020631;28;20401;-78
2021/10/28 06:21:10;;;;;;;83.10;8.85;;;;;;;7.60;81.57;100867.69;5060076;28;20481;-77
2021/10/28 06:23:58;;;;;;;60.28;9.32;;;;;;;7.62;81.65;100870.16;5049088;28;20745;-77
2021/10/28 06:26:22;;;;;;;67.88;8.93;;;;;;;7.64;81.33;100866.19;5059023;28;20419;-77
2021/10/28 06:28:48;;;;;;;61.37;9.77;;;;;;;7.67;81.22;100870.34;5044730;28;20433;-77
2021/10/28 06:31:14;;;;;;;47.13;8.73;;;;;;;7.70;81.61;100868.03;5059004;28;20391;-78
2021/10/28 06:33:47;;;;;;;47.83;9.93;;;;;;;7.75;80.95;100870.06;5055583;28;20397;-77
2021/10/28 06:36:14;;;;;;;63.60;10.32;;;;;;;7.77;81.20;100868.00;5033651;28;20408;-78
2021/10/28 06:38:40;;;;;;;55.03;10.90;;;;;;;7.79;81.77;100868.59;5056574;28;20438;-78
2021/10/28 06:41:05;;;;;;;28.00;9.20;;;;;;;7.83;81.01;100867.13;5046404;28;20441;-78
2021/10/28 06:43:31;;;;;;;27.27;10.47;;;;;;;7.86;81.45;100869.41;5063999;28;20409;-77
2021/10/28 06:45:57;;;;;;;124.57;14.20;;;;;;;7.91;81.99;100869.56;5058608;28;20405;-78
2021/10/28 06:48:22;;;;;;;98.18;15.23;;;;;;;7.93;81.56;100863.94;5044923;28;20463;-75
2021/10/28 06:50:52;;;;;;;138.10;14.60;;;;;;;7.94;81.97;100870.97;5051052;28;20784;-78
2021/10/28 07:03:27;;;;;;;60.70;11.85;;;;;;;8.01;82.34;100875.31;5051156;28;20436;-78
2021/10/28 07:05:55;;;;;;;61.17;13.20;;;;;;;8.06;81.96;100880.88;5052801;28;20403;-79
2021/10/28 07:08:20;;;;;;;75.32;13.88;;;;;;;8.08;81.65;100884.19;5054172;28;20407;-78
2021/10/28 07:10:47;;;;;;;86.77;13.70;;;;;;;8.13;82.53;100891.66;5044230;28;20411;-78
2021/10/28 07:13:17;;;;;;;74.75;13.32;;;;;;;8.13;81.45;100884.38;5068034;28;20403;-78
2021/10/28 07:15:52;;;;;;;94.03;13.05;;;;;;;8.15;82.07;100884.13;5053217;28;20413;-78
2021/10/28 07:32:26;;;;;;;35.30;12.57;;;;;;;8.47;82.20;100898.47;4972121;28;20463;-77
2021/10/28 07:57:15;;;;;;;36.20;14.20;;;;;;;8.40;80.24;100890.41;5052822;28;20797;-77
2021/10/28 07:59:49;;;;;;;29.05;13.88;;;;;;;8.41;80.94;100897.47;5047576;28;20409;-77
2021/10/28 08:05:24;;;;;;;30.83;12.30;;;;;;;8.42;81.39;100898.31;5052837;28;20456;-78
2021/10/28 08:13:35;;;;;;;25.83;12.70;;;;;;;8.55;80.45;100890.91;5049708;28;20396;-78
2021/10/28 08:24:05;;;;;;;34.10;13.30;;;;;;;8.60;80.34;100880.25;5029811;28;20423;-77
2021/10/28 08:31:50;;;;;;;23.05;11.95;;;;;;;8.58;79.63;100881.53;5052936;28;20481;-77
2021/10/28 08:34:21;;;;;;;34.33;13.88;;;;;;;8.57;78.82;100879.88;5032101;28;20479;-76
2021/10/28 08:36:50;;;;;;;19.08;12.68;;;;;;;8.64;79.92;100880.66;5051528;28;20402;-77
2021/10/28 08:39:16;;;;;;;13.00;11.43;;;;;;;8.68;79.84;100884.56;5052128;28;20453;-77
2021/10/28 08:41:44;;;;;;;15.27;12.05;;;;;;;8.72;79.42;100875.81;5053147;28;20385;-76
2021/10/28 08:44:11;;;;;;;19.05;10.88;;;;;;;8.74;79.00;100875.56;5033019;28;20402;-76
2021/10/28 08:46:37;;;;;;;17.95;12.07;;;;;;;8.74;78.74;100875.56;5047599;28;20433;-77
2021/10/28 08:49:05;;;;;;;17.70;11.50;;;;;;;8.75;78.80;100879.94;5049336;28;20382;-76
2021/10/28 08:51:38;;;;;;;17.15;11.88;;;;;;;8.72;79.24;100873.09;5051946;28;20424;-76
2021/10/28 08:54:41;;;;;;;29.20;12.07;;;;;;;8.68;79.14;100877.28;5052889;28;20396;-77
2021/10/28 08:57:16;;;;;;;18.08;11.40;;;;;;;8.62;80.05;100872.78;5052651;28;20477;-76
2021/10/28 08:59:57;;;;;;;20.15;12.13;;;;;;;8.70;79.59;100863.53;5051440;28;20444;-77
2021/10/28 09:24:32;;;;;;;14.95;12.02;;;;;;;9.34;76.50;100858.47;5048921;28;20394;-76
2021/10/28 09:27:08;;;;;;;15.07;12.20;;;;;;;9.33;76.06;100858.69;5048131;28;20455;-76
2021/10/28 09:34:52;;;;;;;12.52;11.20;;;;;;;9.60;76.97;100851.06;5051594;28;20436;-77
2021/10/28 09:46:21;;;;;;;19.08;15.02;;;;;;;9.78;76.72;100861.88;5031071;28;20583;-76
2021/10/28 09:51:51;;;;;;;18.35;14.93;;;;;;;9.84;76.37;100847.41;5051962;28;20398;-76
2021/10/28 09:54:33;;;;;;;20.10;15.47;;;;;;;9.89;76.03;100844.81;5049643;28;21180;-78
2021/10/28 09:59:55;;;;;;;20.10;16.40;;;;;;;9.79;76.51;100839.97;5045571;28;20376;-77
2021/10/28 10:04:54;;;;;;;25.83;18.20;;;;;;;9.79;76.83;100852.66;5051704;28;20401;-78
2021/10/28 10:07:21;;;;;;;22.58;15.88;;;;;;;9.81;76.95;100853.28;5051287;28;20393;-78
2021/10/28 10:09:47;;;;;;;19.77;16.20;;;;;;;9.85;76.73;100844.44;5047320;28;20960;-76
2021/10/28 10:12:13;;;;;;;24.63;16.60;;;;;;;9.89;76.95;100844.81;5051208;28;20432;-76
2021/10/28 10:14:41;;;;;;;21.23;17.33;;;;;;;9.90;77.13;100838.34;5051153;28;20481;-76
2021/10/28 10:17:07;;;;;;;24.63;17.83;;;;;;;9.87;76.76;100836.09;5048457;28;20430;-76
2021/10/28 10:19:46;;;;;;;21.60;18.40;;;;;;;9.87;77.18;100834.22;5051356;28;20402;-75
2021/10/28 10:25:03;;;;;;;24.52;18.83;;;;;;;9.99;76.90;100841.53;5045988;28;20904;-74
2021/10/28 12:20:55;;;;;;;28.15;22.80;;;;;;;12.10;72.34;100698.69;5043877;28;20418;-76
2021/10/28 12:45:46;;;;;;;28.50;23.08;;;;;;;11.77;73.82;100660.69;5043014;28;20759;-76
2021/10/28 12:51:34;;;;;;;30.73;23.30;;;;;;;11.54;74.66;100655.38;5060389;28;20384;-77
2021/10/28 12:54:10;;;;;;;25.80;22.95;;;;;;;11.42;74.52;100656.31;5058568;28;20870;-77
2021/10/28 12:56:50;;;;;;;27.65;23.20;;;;;;;11.28;75.33;100648.72;5049228;28;20781;-77
2021/10/28 13:51:01;;;;;;;31.47;24.27;;;;;;;11.13;79.12;100611.28;5037349;28;20405;-76
2021/10/28 13:59:28;;;;;;;30.55;23.20;;;;;;;11.14;79.34;100612.94;5043853;28;20479;-77
2021/10/28 14:34:47;;;;;;;30.10;23.93;;;;;;;11.11;79.36;100583.59;5056352;28;20404;-77
2021/10/28 14:58:20;;;;;;;27.95;22.58;;;;;;;11.10;79.81;100573.00;5047665;28;20425;-77
2021/10/28 15:28:59;;;;;;;32.38;24.00;;;;;;;10.99;81.23;100533.22;5055438;28;20512;-77
2021/10/28 15:34:36;;;;;;;31.35;23.70;;;;;;;10.97;81.37;100528.00;5057335;28;20811;-77
2021/10/28 15:43:05;;;;;;;33.03;24.70;;;;;;;10.93;81.30;100530.41;5054095;28;20412;-77
2021/10/28 15:48:57;;;;;;;33.90;23.45;;;;;;;10.88;81.47;100527.59;5052025;28;20470;-77
2021/10/28 16:21:46;;;;;;;39.30;28.98;;;;;;;10.73;81.93;100516.50;5057495;28;20492;-77
2021/10/28 16:23:35;;;;;;;44.40;33.70;;;;;;;10.45;82.73;100502.16;5043714;28;20428;-76
2021/10/28 16:26:02;;;;;;;42.90;33.13;;;;;;;10.41;82.20;100513.47;5049750;28;21573;-77
2021/10/28 16:28:29;;;;;;;48.15;33.67;;;;;;;10.37;81.93;100508.81;5046892;28;20433;-78
2021/10/28 16:30:55;;;;;;;49.58;36.22;;;;;;;10.35;82.03;100505.50;5034462;28;20440;-77
2021/10/28 16:33:20;;;;;;;56.45;42.47;;;;;;;10.33;82.29;100503.03;5056746;28;20400;-76
2021/10/28 16:35:46;;;;;;;54.45;40.53;;;;;;;10.32;82.34;100508.69;5047296;28;20509;-77
2021/10/28 16:38:12;;;;;;;56.97;38.58;;;;;;;10.27;82.61;100514.81;5029360;28;20433;-77
2021/10/28 16:40:39;;;;;;;51.55;36.97;;;;;;;10.23;82.48;100505.56;5042162;28;20408;-77
2021/10/28 16:43:04;;;;;;;49.90;35.95;;;;;;;10.21;82.00;100504.94;5042596;28;20398;-76
2021/10/28 16:45:30;;;;;;;45.60;34.63;;;;;;;10.20;81.60;100507.91;5050584;28;21047;-77
2021/10/28 16:47:56;;;;;;;57.13;40.90;;;;;;;10.17;81.74;100509.22;5045025;28;20463;-77
2021/10/28 16:50:21;;;;;;;68.60;45.15;;;;;;;10.15;81.96;100503.22;5048461;28;20787;-77
2021/10/28 16:52:47;;;;;;;60.67;40.93;;;;;;;10.13;82.44;100505.31;5048459;28;20411;-77
2021/10/28 16:55:12;;;;;;;58.63;39.27;;;;;;;10.10;82.52;100508.50;5049020;28;20415;-78
2021/10/28 16:57:38;;;;;;;61.60;41.25;;;;;;;10.07;82.35;100508.16;5016411;28;20565;-77
2021/10/28 17:00:05;;;;;;;53.93;36.60;;;;;;;10.02;82.56;100510.75;5032647;28;20896;-76
2021/10/28 17:02:32;;;;;;;48.70;35.03;;;;;;;9.99;82.46;100509.34;5033638;28;20416;-77
2021/10/28 17:04:57;;;;;;;53.30;34.08;;;;;;;9.94;82.41;100508.44;5026018;28;20496;-77
2021/10/28 17:07:23;;;;;;;50.73;34.27;;;;;;;9.89;82.59;100507.25;5003381;28;20444;-77
2021/10/28 17:09:49;;;;;;;42.10;31.30;;;;;;;9.89;82.77;100514.56;5021719;28;20494;-76
2021/10/28 17:12:14;;;;;;;40.27;29.67;;;;;;;9.85;82.94;100516.09;5016548;28;20409;-77
2021/10/28 17:14:40;;;;;;;41.33;30.30;;;;;;;9.82;82.60;100516.56;5016991;28;20890;-77
2021/10/28 17:17:05;;;;;;;40.97;29.50;;;;;;;9.78;82.92;100518.94;5018764;28;20418;-77
2021/10/28 17:19:30;;;;;;;38.53;29.00;;;;;;;9.76;82.87;100523.78;5014705;28;20913;-77
2021/10/28 17:21:56;;;;;;;40.13;29.97;;;;;;;9.72;82.68;100514.47;5017786;28;20544;-77
2021/10/28 17:24:26;;;;;;;42.00;31.27;;;;;;;9.69;82.22;100512.25;5016487;28;20468;-77
2021/10/28 17:26:51;;;;;;;45.45;32.97;;;;;;;9.67;82.42;100513.56;5018026;28;20415;-77
2021/10/28 17:29:17;;;;;;;47.73;34.77;;;;;;;9.66;82.42;100506.47;5020120;28;20406;-77
2021/10/28 17:31:42;;;;;;;49.70;36.03;;;;;;;9.65;82.47;100513.78;5018097;28;21152;-77
2021/10/28 17:34:07;;;;;;;47.38;35.00;;;;;;;9.66;82.62;100517.31;5030848;28;20415;-77
2021/10/28 17:36:33;;;;;;;49.73;35.57;;;;;;;9.66;82.89;100515.44;5006891;28;20418;-77
2021/10/28 17:38:59;;;;;;;48.23;33.20;;;;;;;9.68;82.83;100513.28;5014023;28;20552;-77
2021/10/28 17:41:25;;;;;;;46.30;34.27;;;;;;;9.67;83.13;100508.97;5017215;28;20418;-77
2021/10/28 17:43:52;;;;;;;44.33;31.83;;;;;;;9.67;82.88;100517.09;5016480;28;20442;-77
2021/10/28 17:46:18;;;;;;;43.22;31.92;;;;;;;9.65;82.99;100518.38;5015514;28;20410;-77
2021/10/28 17:48:44;;;;;;;40.43;30.57;;;;;;;9.60;82.73;100519.09;5005923;28;20476;-77
2021/10/28 17:51:10;;;;;;;42.55;31.23;;;;;;;9.59;83.02;100522.00;5019616;28;21169;-76
2021/10/28 17:53:36;;;;;;;43.15;31.63;;;;;;;9.57;82.40;100518.72;5017390;28;20414;-77
2021/10/28 17:56:02;;;;;;;52.20;31.73;;;;;;;9.56;82.45;100514.38;5017617;28;20419;-77
2021/10/28 17:58:27;;;;;;;51.92;31.98;;;;;;;9.53;82.35;100512.97;5022909;28;20503;-77
2021/10/28 18:00:52;;;;;;;54.97;34.93;;;;;;;9.52;82.61;100510.50;5019246;28;20419;-77
2021/10/28 18:03:20;;;;;;;46.60;34.60;;;;;;;9.52;82.42;100510.50;5015906;28;20415;-77
2021/10/28 18:05:45;;;;;;;50.97;35.78;;;;;;;9.51;82.37;100520.50;5003597;28;20479;-77
2021/10/28 18:08:13;;;;;;;53.35;35.33;;;;;;;9.53;82.99;100510.28;5013803;28;20415;-77
2021/10/28 18:10:38;;;;;;;53.67;34.97;;;;;;;9.54;82.93;100508.38;5016575;28;20517;-77
2021/10/28 18:13:04;;;;;;;47.27;32.70;;;;;;;9.55;83.31;100515.47;5029910;28;21472;-77
2021/10/28 18:15:30;;;;;;;49.70;33.38;;;;;;;9.53;82.92;100507.56;5013961;28;20442;-76
2021/10/28 18:18:01;;;;;;;45.70;33.73;;;;;;;9.52;83.15;100505.06;5001910;28;20528;-76
2021/10/28 18:20:27;;;;;;;46.78;33.58;;;;;;;9.51;83.30;100496.16;5015837;28;20404;-77
2021/10/28 18:22:53;;;;;;;49.90;33.70;;;;;;;9.51;83.44;100501.56;5014767;28;20926;-77
2021/10/28 18:25:19;;;;;;;46.45;33.85;;;;;;;9.51;83.27;100501.56;5016560;28;20418;-77
2021/10/28 18:27:44;;;;;;;50.58;33.88;;;;;;;9.49;83.11;100497.44;5011689;28;20430;-77
2021/10/28 18:30:13;;;;;;;49.80;33.97;;;;;;;9.48;82.97;100499.34;5017034;28;20438;-77
2021/10/28 18:32:40;;;;;;;40.75;31.85;;;;;;;9.47;82.94;100491.44;5015277;28;20458;-77
2021/10/28 18:35:06;;;;;;;51.67;35.47;;;;;;;9.44;82.89;100489.22;5005343;28;20409;-77
2021/10/28 18:37:32;;;;;;;59.47;34.50;;;;;;;9.41;82.99;100487.81;5020518;28;20413;-77
2021/10/28 18:39:57;;;;;;;37.67;26.17;;;;;;;9.32;81.55;100481.94;5014586;28;20430;-77
2021/10/28 18:42:23;;;;;;;66.30;30.80;;;;;;;9.24;80.88;100487.72;4998806;28;20413;-77
2021/10/28 18:44:48;;;;;;;30.20;20.08;;;;;;;9.17;80.22;100487.00;5012739;28;20438;-77
2021/10/28 18:47:14;;;;;;;26.60;19.43;;;;;;;9.12;79.90;100477.97;5003215;28;20444;-77
2021/10/28 18:49:40;;;;;;;25.27;18.65;;;;;;;9.06;80.47;100471.59;5015008;28;20902;-77
2021/10/28 18:52:05;;;;;;;25.73;19.03;;;;;;;9.02;80.99;100465.03;5006127;28;20986;-79
2021/10/28 18:54:31;;;;;;;26.87;19.90;;;;;;;8.99;81.01;100454.66;5016464;28;20418;-76
2021/10/28 18:56:56;;;;;;;27.98;19.02;;;;;;;8.96;81.08;100451.63;5018037;28;20435;-76
2021/10/28 18:59:21;;;;;;;24.47;18.43;;;;;;;8.91;81.39;100446.09;5017496;28;20462;-77
2021/10/28 19:01:50;;;;;;;23.33;18.33;;;;;;;8.84;81.35;100435.38;5017764;28;20527;-76
2021/10/28 19:04:17;;;;;;;25.58;19.95;;;;;;;8.81;81.22;100433.16;5004602;28;21140;-76
2021/10/28 19:06:43;;;;;;;29.33;20.55;;;;;;;8.81;81.26;100431.28;5007367;28;20421;-77
2021/10/28 19:09:09;;;;;;;29.92;22.20;;;;;;;8.82;81.24;100430.19;5019222;28;20418;-77
2021/10/28 19:11:35;;;;;;;36.10;25.73;;;;;;;8.80;81.21;100423.41;5019736;28;20407;-77
2021/10/28 19:14:00;;;;;;;37.37;26.07;;;;;;;8.80;80.99;100428.78;5006953;28;20439;-77
2021/10/28 19:16:25;;;;;;;35.83;25.73;;;;;;;8.80;81.00;100434.19;5021385;28;20497;-77
2021/10/28 19:18:51;;;;;;;35.37;26.57;;;;;;;8.78;81.23;100430.91;5019793;28;20461;-76
2021/10/28 19:21:16;;;;;;;33.97;24.47;;;;;;;8.73;81.43;100423.50;5008240;28;20458;-76
2021/10/28 19:23:41;;;;;;;38.27;27.10;;;;;;;8.72;81.46;100424.59;5019674;28;22837;-76
2021/10/28 19:26:08;;;;;;;41.38;30.70;;;;;;;8.71;81.48;100417.53;5021490;28;20421;-76
2021/10/28 19:28:35;;;;;;;55.05;39.20;;;;;;;8.72;81.67;100416.47;5021647;28;20438;-77
2021/10/28 19:31:08;;;;;;;45.13;31.05;;;;;;;8.74;81.83;100408.13;5037510;28;20539;-77
2021/10/28 19:36:04;;;;;;;52.45;38.22;;;;;;;8.73;81.66;100406.47;5007318;28;20424;-77
2021/10/28 19:46:17;;;;;;;54.60;35.67;;;;;;;8.69;81.92;100413.41;5020644;28;20883;-77
2021/10/28 19:48:42;;;;;;;50.78;34.58;;;;;;;8.69;81.90;100403.41;5020389;28;20417;-77
2021/10/28 19:51:09;;;;;;;48.57;33.80;;;;;;;8.69;81.75;100406.13;5021275;28;20920;-77